sensor_id;sensor_type;location;lat;lon;timestamp;P1;durP1;ratioP1;P2;durP2;ratioP2
5549;SDS011;2798;42.716;23.256;2023-02-01T00:01:34;3.90;;;3.50;;
5549;SDS011;2798;42.716;23.256;2023-02-01T00:03:59;5.27;;;4.00;;
5549;SDS011;2798;42.716;23.256;2023-02-01T00:06:24;5.70;;;3.97;;
5549;SDS011;2798;42.716;23.256;2023-02-01T00:08:52;4.23;;;3.60;;
5549;SDS011;2798;42.716;23.256;2023-02-01T00:11:17;4.80;;;4.00;;
5549;SDS011;2798;42.716;23.256;2023-02-01T00:13:42;5.60;;;3.90;;
5549;SDS011;2798;42.716;23.256;2023-02-01T00:16:12;4.40;;;3.77;;
5549;SDS011;2798;42.716;23.256;2023-02-01T00:18:37;5.00;;;4.20;;
5549;SDS011;2798;42.716;23.256;2023-02-01T00:21:03;5.13;;;4.00;;
5549;SDS011;2798;42.716;23.256;2023-02-01T00:23:30;4.60;;;4.10;;
5549;SDS011;2798;42.716;23.256;2023-02-01T00:25:56;3.83;;;3.53;;
5549;SDS011;2798;42.716;23.256;2023-02-01T00:28:24;7.87;;;4.90;;
5549;SDS011;2798;42.716;23.256;2023-02-01T00:30:55;7.77;;;4.07;;
5549;SDS011;2798;42.716;23.256;2023-02-01T00:33:20;4.90;;;4.20;;
5549;SDS011;2798;42.716;23.256;2023-02-01T00:35:46;6.00;;;4.57;;
5549;SDS011;2798;42.716;23.256;2023-02-01T00:38:11;4.00;;;3.67;;
5549;SDS011;2798;42.716;23.256;2023-02-01T00:40:36;5.73;;;4.10;;
5549;SDS011;2798;42.716;23.256;2023-02-01T00:43:01;5.53;;;4.17;;
5549;SDS011;2798;42.716;23.256;2023-02-01T00:45:27;5.30;;;4.20;;
5549;SDS011;2798;42.716;23.256;2023-02-01T00:47:52;6.97;;;4.87;;
5549;SDS011;2798;42.716;23.256;2023-02-01T00:50:17;5.67;;;4.40;;
5549;SDS011;2798;42.716;23.256;2023-02-01T00:52:42;4.90;;;4.30;;
5549;SDS011;2798;42.716;23.256;2023-02-01T00:55:08;6.13;;;3.93;;
5549;SDS011;2798;42.716;23.256;2023-02-01T00:57:33;4.07;;;3.67;;
5549;SDS011;2798;42.716;23.256;2023-02-01T00:59:58;3.80;;;3.37;;
5549;SDS011;2798;42.716;23.256;2023-02-01T01:02:25;3.57;;;3.27;;
5549;SDS011;2798;42.716;23.256;2023-02-01T01:04:50;7.07;;;3.60;;
5549;SDS011;2798;42.716;23.256;2023-02-01T01:07:16;5.47;;;3.50;;
5549;SDS011;2798;42.716;23.256;2023-02-01T01:09:41;3.00;;;2.80;;
5549;SDS011;2798;42.716;23.256;2023-02-01T01:12:06;5.80;;;3.50;;
5549;SDS011;2798;42.716;23.256;2023-02-01T01:14:32;4.37;;;3.30;;
5549;SDS011;2798;42.716;23.256;2023-02-01T01:16:57;3.53;;;3.23;;
5549;SDS011;2798;42.716;23.256;2023-02-01T01:19:23;3.17;;;2.87;;
5549;SDS011;2798;42.716;23.256;2023-02-01T01:21:48;4.40;;;3.20;;
5549;SDS011;2798;42.716;23.256;2023-02-01T01:24:13;5.77;;;3.70;;
5549;SDS011;2798;42.716;23.256;2023-02-01T01:26:38;5.67;;;3.00;;
5549;SDS011;2798;42.716;23.256;2023-02-01T01:29:04;5.70;;;3.40;;
5549;SDS011;2798;42.716;23.256;2023-02-01T01:31:29;4.43;;;3.37;;
5549;SDS011;2798;42.716;23.256;2023-02-01T01:33:56;3.87;;;2.83;;
5549;SDS011;2798;42.716;23.256;2023-02-01T01:36:21;3.90;;;3.03;;
5549;SDS011;2798;42.716;23.256;2023-02-01T01:38:47;5.67;;;3.00;;
5549;SDS011;2798;42.716;23.256;2023-02-01T01:41:13;3.10;;;2.90;;
5549;SDS011;2798;42.716;23.256;2023-02-01T01:48:50;3.90;;;3.20;;
5549;SDS011;2798;42.716;23.256;2023-02-01T01:51:19;3.40;;;3.10;;
5549;SDS011;2798;42.716;23.256;2023-02-01T01:53:50;4.63;;;3.10;;
5549;SDS011;2798;42.716;23.256;2023-02-01T01:56:18;2.83;;;2.60;;
5549;SDS011;2798;42.716;23.256;2023-02-01T01:58:44;3.30;;;2.80;;
5549;SDS011;2798;42.716;23.256;2023-02-01T02:01:09;4.57;;;3.20;;
5549;SDS011;2798;42.716;23.256;2023-02-01T02:03:35;5.90;;;2.97;;
5549;SDS011;2798;42.716;23.256;2023-02-01T02:06:03;5.77;;;2.80;;
5549;SDS011;2798;42.716;23.256;2023-02-01T02:08:30;3.00;;;2.63;;
5549;SDS011;2798;42.716;23.256;2023-02-01T02:10:55;3.40;;;3.10;;
5549;SDS011;2798;42.716;23.256;2023-02-01T02:13:27;5.23;;;2.70;;
5549;SDS011;2798;42.716;23.256;2023-02-01T02:18:24;3.40;;;2.87;;
5549;SDS011;2798;42.716;23.256;2023-02-01T02:21:02;4.23;;;3.83;;
5549;SDS011;2798;42.716;23.256;2023-02-01T02:23:54;3.90;;;3.33;;
5549;SDS011;2798;42.716;23.256;2023-02-01T02:28:52;5.10;;;4.00;;
5549;SDS011;2798;42.716;23.256;2023-02-01T02:44:39;3.57;;;2.97;;
5549;SDS011;2798;42.716;23.256;2023-02-01T02:47:31;3.27;;;2.97;;
5549;SDS011;2798;42.716;23.256;2023-02-01T02:50:41;5.90;;;3.30;;
5549;SDS011;2798;42.716;23.256;2023-02-01T02:53:15;4.83;;;3.27;;
5549;SDS011;2798;42.716;23.256;2023-02-01T02:56:00;6.63;;;4.03;;
5549;SDS011;2798;42.716;23.256;2023-02-01T02:58:45;3.30;;;2.70;;
5549;SDS011;2798;42.716;23.256;2023-02-01T03:01:29;3.40;;;2.90;;
5549;SDS011;2798;42.716;23.256;2023-02-01T03:04:13;4.53;;;2.80;;
5549;SDS011;2798;42.716;23.256;2023-02-01T03:06:42;2.80;;;2.60;;
5549;SDS011;2798;42.716;23.256;2023-02-01T03:09:10;5.40;;;2.87;;
5549;SDS011;2798;42.716;23.256;2023-02-01T03:11:37;3.80;;;2.80;;
5549;SDS011;2798;42.716;23.256;2023-02-01T03:14:22;4.33;;;3.23;;
5549;SDS011;2798;42.716;23.256;2023-02-01T03:16:51;3.20;;;2.80;;
5549;SDS011;2798;42.716;23.256;2023-02-01T03:19:27;3.33;;;3.03;;
5549;SDS011;2798;42.716;23.256;2023-02-01T03:22:04;4.10;;;3.27;;
5549;SDS011;2798;42.716;23.256;2023-02-01T03:24:38;3.23;;;2.93;;
5549;SDS011;2798;42.716;23.256;2023-02-01T03:27:09;3.23;;;2.93;;
5549;SDS011;2798;42.716;23.256;2023-02-01T03:29:44;4.47;;;3.40;;
5549;SDS011;2798;42.716;23.256;2023-02-01T03:32:10;3.43;;;2.97;;
5549;SDS011;2798;42.716;23.256;2023-02-01T03:34:36;5.37;;;2.70;;
5549;SDS011;2798;42.716;23.256;2023-02-01T03:37:02;4.00;;;2.90;;
5549;SDS011;2798;42.716;23.256;2023-02-01T03:39:30;3.10;;;2.83;;
5549;SDS011;2798;42.716;23.256;2023-02-01T03:41:58;5.20;;;3.00;;
5549;SDS011;2798;42.716;23.256;2023-02-01T03:44:32;3.40;;;2.83;;
5549;SDS011;2798;42.716;23.256;2023-02-01T03:49:27;3.27;;;2.97;;
5549;SDS011;2798;42.716;23.256;2023-02-01T03:51:54;4.30;;;3.17;;
5549;SDS011;2798;42.716;23.256;2023-02-01T03:54:19;4.07;;;3.07;;
5549;SDS011;2798;42.716;23.256;2023-02-01T03:56:46;4.70;;;3.47;;
5549;SDS011;2798;42.716;23.256;2023-02-01T03:59:12;4.90;;;3.10;;
5549;SDS011;2798;42.716;23.256;2023-02-01T04:01:38;3.37;;;2.93;;
5549;SDS011;2798;42.716;23.256;2023-02-01T04:04:04;2.97;;;2.67;;
5549;SDS011;2798;42.716;23.256;2023-02-01T04:06:29;4.73;;;2.90;;
5549;SDS011;2798;42.716;23.256;2023-02-01T04:08:54;2.63;;;2.43;;
5549;SDS011;2798;42.716;23.256;2023-02-01T04:11:19;3.27;;;2.97;;
5549;SDS011;2798;42.716;23.256;2023-02-01T04:13:45;4.33;;;3.40;;
5549;SDS011;2798;42.716;23.256;2023-02-01T04:16:10;4.13;;;3.27;;
5549;SDS011;2798;42.716;23.256;2023-02-01T04:18:35;3.77;;;2.90;;
5549;SDS011;2798;42.716;23.256;2023-02-01T04:21:01;5.13;;;3.20;;
5549;SDS011;2798;42.716;23.256;2023-02-01T04:23:27;5.30;;;2.93;;
5549;SDS011;2798;42.716;23.256;2023-02-01T04:25:52;2.80;;;2.50;;
5549;SDS011;2798;42.716;23.256;2023-02-01T04:28:18;2.80;;;2.60;;
5549;SDS011;2798;42.716;23.256;2023-02-01T04:30:43;2.50;;;2.30;;
5549;SDS011;2798;42.716;23.256;2023-02-01T04:33:08;2.47;;;2.27;;
5549;SDS011;2798;42.716;23.256;2023-02-01T04:35:34;2.90;;;2.70;;
5549;SDS011;2798;42.716;23.256;2023-02-01T04:37:59;4.63;;;3.10;;
5549;SDS011;2798;42.716;23.256;2023-02-01T04:40:25;2.93;;;2.70;;
5549;SDS011;2798;42.716;23.256;2023-02-01T04:42:50;3.40;;;3.07;;
5549;SDS011;2798;42.716;23.256;2023-02-01T04:45:15;5.47;;;3.43;;
5549;SDS011;2798;42.716;23.256;2023-02-01T04:47:40;6.50;;;3.03;;
5549;SDS011;2798;42.716;23.256;2023-02-01T04:50:06;3.57;;;3.10;;
5549;SDS011;2798;42.716;23.256;2023-02-01T04:52:32;4.50;;;3.70;;
5549;SDS011;2798;42.716;23.256;2023-02-01T04:54:58;5.83;;;3.23;;
5549;SDS011;2798;42.716;23.256;2023-02-01T04:57:25;7.47;;;3.57;;
5549;SDS011;2798;42.716;23.256;2023-02-01T04:59:50;5.33;;;3.80;;
5549;SDS011;2798;42.716;23.256;2023-02-01T05:02:15;4.10;;;3.40;;
5549;SDS011;2798;42.716;23.256;2023-02-01T05:04:41;6.50;;;4.07;;
5549;SDS011;2798;42.716;23.256;2023-02-01T05:07:06;10.90;;;3.57;;
5549;SDS011;2798;42.716;23.256;2023-02-01T05:09:31;5.30;;;3.77;;
5549;SDS011;2798;42.716;23.256;2023-02-01T05:11:56;7.50;;;3.90;;
5549;SDS011;2798;42.716;23.256;2023-02-01T05:14:40;4.20;;;3.60;;
5549;SDS011;2798;42.716;23.256;2023-02-01T05:17:06;4.60;;;3.53;;
5549;SDS011;2798;42.716;23.256;2023-02-01T05:19:31;7.53;;;3.90;;
5549;SDS011;2798;42.716;23.256;2023-02-01T05:21:56;5.80;;;4.00;;
5549;SDS011;2798;42.716;23.256;2023-02-01T05:24:22;4.30;;;3.63;;
5549;SDS011;2798;42.716;23.256;2023-02-01T05:26:48;7.07;;;4.53;;
5549;SDS011;2798;42.716;23.256;2023-02-01T05:29:13;6.23;;;4.37;;
5549;SDS011;2798;42.716;23.256;2023-02-01T05:31:39;3.83;;;3.30;;
5549;SDS011;2798;42.716;23.256;2023-02-01T05:34:04;5.27;;;3.67;;
5549;SDS011;2798;42.716;23.256;2023-02-01T05:36:30;5.03;;;3.60;;
5549;SDS011;2798;42.716;23.256;2023-02-01T05:38:55;3.30;;;2.80;;
5549;SDS011;2798;42.716;23.256;2023-02-01T05:41:21;4.40;;;3.47;;
5549;SDS011;2798;42.716;23.256;2023-02-01T05:43:46;5.00;;;3.43;;
5549;SDS011;2798;42.716;23.256;2023-02-01T05:46:11;5.77;;;3.70;;
5549;SDS011;2798;42.716;23.256;2023-02-01T05:48:41;5.30;;;3.10;;
5549;SDS011;2798;42.716;23.256;2023-02-01T05:51:06;3.20;;;2.90;;
5549;SDS011;2798;42.716;23.256;2023-02-01T05:53:32;3.77;;;3.40;;
5549;SDS011;2798;42.716;23.256;2023-02-01T05:55:57;3.50;;;3.00;;
5549;SDS011;2798;42.716;23.256;2023-02-01T05:58:22;3.80;;;3.37;;
5549;SDS011;2798;42.716;23.256;2023-02-01T06:00:47;4.77;;;3.00;;
5549;SDS011;2798;42.716;23.256;2023-02-01T06:03:13;3.10;;;2.90;;
5549;SDS011;2798;42.716;23.256;2023-02-01T06:05:38;3.80;;;2.97;;
5549;SDS011;2798;42.716;23.256;2023-02-01T06:08:03;3.43;;;3.13;;
5549;SDS011;2798;42.716;23.256;2023-02-01T06:10:29;4.83;;;3.20;;
5549;SDS011;2798;42.716;23.256;2023-02-01T06:12:56;7.57;;;4.00;;
5549;SDS011;2798;42.716;23.256;2023-02-01T06:15:21;4.30;;;3.13;;
5549;SDS011;2798;42.716;23.256;2023-02-01T06:17:46;6.97;;;3.47;;
5549;SDS011;2798;42.716;23.256;2023-02-01T06:20:12;7.00;;;3.40;;
5549;SDS011;2798;42.716;23.256;2023-02-01T06:22:38;3.40;;;2.80;;
5549;SDS011;2798;42.716;23.256;2023-02-01T06:25:04;8.37;;;3.50;;
5549;SDS011;2798;42.716;23.256;2023-02-01T06:27:29;5.43;;;3.07;;
5549;SDS011;2798;42.716;23.256;2023-02-01T06:29:55;9.53;;;3.43;;
5549;SDS011;2798;42.716;23.256;2023-02-01T06:32:21;4.00;;;2.67;;
5549;SDS011;2798;42.716;23.256;2023-02-01T06:34:46;3.40;;;2.90;;
5549;SDS011;2798;42.716;23.256;2023-02-01T06:37:11;4.60;;;3.17;;
5549;SDS011;2798;42.716;23.256;2023-02-01T06:39:37;7.50;;;2.83;;
5549;SDS011;2798;42.716;23.256;2023-02-01T06:42:02;5.07;;;3.53;;
5549;SDS011;2798;42.716;23.256;2023-02-01T06:44:28;3.63;;;3.03;;
5549;SDS011;2798;42.716;23.256;2023-02-01T06:46:53;6.70;;;3.97;;
5549;SDS011;2798;42.716;23.256;2023-02-01T06:49:19;4.00;;;3.37;;
5549;SDS011;2798;42.716;23.256;2023-02-01T06:51:45;4.97;;;3.37;;
5549;SDS011;2798;42.716;23.256;2023-02-01T06:54:10;5.20;;;3.10;;
5549;SDS011;2798;42.716;23.256;2023-02-01T06:56:35;5.00;;;3.60;;
5549;SDS011;2798;42.716;23.256;2023-02-01T06:59:03;6.00;;;3.80;;
5549;SDS011;2798;42.716;23.256;2023-02-01T07:01:28;4.50;;;3.33;;
5549;SDS011;2798;42.716;23.256;2023-02-01T07:03:53;5.77;;;3.40;;
5549;SDS011;2798;42.716;23.256;2023-02-01T07:06:19;3.67;;;3.07;;
5549;SDS011;2798;42.716;23.256;2023-02-01T07:08:44;4.13;;;3.30;;
5549;SDS011;2798;42.716;23.256;2023-02-01T07:11:11;4.60;;;3.37;;
5549;SDS011;2798;42.716;23.256;2023-02-01T07:13:37;4.43;;;3.27;;
5549;SDS011;2798;42.716;23.256;2023-02-01T07:16:04;4.27;;;2.97;;
5549;SDS011;2798;42.716;23.256;2023-02-01T07:18:30;5.77;;;3.00;;
5549;SDS011;2798;42.716;23.256;2023-02-01T07:20:55;10.17;;;3.50;;
5549;SDS011;2798;42.716;23.256;2023-02-01T07:23:21;4.50;;;3.00;;
5549;SDS011;2798;42.716;23.256;2023-02-01T07:25:46;4.97;;;2.97;;
5549;SDS011;2798;42.716;23.256;2023-02-01T07:28:11;6.77;;;3.03;;
5549;SDS011;2798;42.716;23.256;2023-02-01T07:30:37;5.00;;;3.17;;
5549;SDS011;2798;42.716;23.256;2023-02-01T07:33:02;5.00;;;3.07;;
5549;SDS011;2798;42.716;23.256;2023-02-01T07:35:27;4.80;;;2.60;;
5549;SDS011;2798;42.716;23.256;2023-02-01T07:37:53;2.90;;;2.60;;
5549;SDS011;2798;42.716;23.256;2023-02-01T07:40:18;5.90;;;2.77;;
5549;SDS011;2798;42.716;23.256;2023-02-01T07:42:47;2.90;;;2.60;;
5549;SDS011;2798;42.716;23.256;2023-02-01T07:45:13;5.70;;;2.77;;
5549;SDS011;2798;42.716;23.256;2023-02-01T07:47:39;3.83;;;2.20;;
5549;SDS011;2798;42.716;23.256;2023-02-01T07:50:04;4.00;;;2.73;;
5549;SDS011;2798;42.716;23.256;2023-02-01T07:52:29;3.90;;;3.30;;
5549;SDS011;2798;42.716;23.256;2023-02-01T07:54:54;6.60;;;3.57;;
5549;SDS011;2798;42.716;23.256;2023-02-01T07:57:20;4.00;;;2.60;;
5549;SDS011;2798;42.716;23.256;2023-02-01T07:59:45;4.30;;;3.03;;
5549;SDS011;2798;42.716;23.256;2023-02-01T08:02:28;3.10;;;2.80;;
5549;SDS011;2798;42.716;23.256;2023-02-01T08:04:54;3.10;;;2.50;;
5549;SDS011;2798;42.716;23.256;2023-02-01T08:07:19;3.40;;;2.30;;
5549;SDS011;2798;42.716;23.256;2023-02-01T08:09:44;4.90;;;3.10;;
5549;SDS011;2798;42.716;23.256;2023-02-01T08:12:09;5.33;;;2.87;;
5549;SDS011;2798;42.716;23.256;2023-02-01T08:14:35;4.43;;;2.80;;
5549;SDS011;2798;42.716;23.256;2023-02-01T08:17:00;3.73;;;2.50;;
5549;SDS011;2798;42.716;23.256;2023-02-01T08:19:25;3.47;;;3.00;;
5549;SDS011;2798;42.716;23.256;2023-02-01T08:21:50;4.90;;;2.90;;
5549;SDS011;2798;42.716;23.256;2023-02-01T08:24:16;3.70;;;2.93;;
5549;SDS011;2798;42.716;23.256;2023-02-01T08:26:41;4.23;;;3.30;;
5549;SDS011;2798;42.716;23.256;2023-02-01T08:29:06;3.70;;;2.90;;
5549;SDS011;2798;42.716;23.256;2023-02-01T08:31:32;4.20;;;3.30;;
5549;SDS011;2798;42.716;23.256;2023-02-01T08:33:58;3.57;;;2.67;;
5549;SDS011;2798;42.716;23.256;2023-02-01T08:36:24;4.80;;;3.00;;
5549;SDS011;2798;42.716;23.256;2023-02-01T08:38:49;5.60;;;3.00;;
5549;SDS011;2798;42.716;23.256;2023-02-01T08:41:16;4.27;;;3.13;;
5549;SDS011;2798;42.716;23.256;2023-02-01T08:43:42;4.03;;;2.80;;
5549;SDS011;2798;42.716;23.256;2023-02-01T08:46:07;3.30;;;2.87;;
5549;SDS011;2798;42.716;23.256;2023-02-01T08:48:33;4.03;;;3.50;;
5549;SDS011;2798;42.716;23.256;2023-02-01T08:51:06;4.13;;;3.10;;
5549;SDS011;2798;42.716;23.256;2023-02-01T08:53:32;3.40;;;2.80;;
5549;SDS011;2798;42.716;23.256;2023-02-01T08:55:57;4.83;;;3.00;;
5549;SDS011;2798;42.716;23.256;2023-02-01T08:58:23;5.97;;;3.60;;
5549;SDS011;2798;42.716;23.256;2023-02-01T09:00:48;5.60;;;3.10;;
5549;SDS011;2798;42.716;23.256;2023-02-01T09:03:14;4.40;;;2.90;;
5549;SDS011;2798;42.716;23.256;2023-02-01T09:05:39;7.73;;;3.30;;
5549;SDS011;2798;42.716;23.256;2023-02-01T09:08:04;4.90;;;2.80;;
5549;SDS011;2798;42.716;23.256;2023-02-01T09:10:30;6.50;;;3.37;;
5549;SDS011;2798;42.716;23.256;2023-02-01T09:12:55;6.93;;;3.57;;
5549;SDS011;2798;42.716;23.256;2023-02-01T09:15:20;5.07;;;3.03;;
5549;SDS011;2798;42.716;23.256;2023-02-01T09:17:46;3.60;;;2.77;;
5549;SDS011;2798;42.716;23.256;2023-02-01T09:20:11;4.50;;;2.90;;
5549;SDS011;2798;42.716;23.256;2023-02-01T09:22:36;5.03;;;3.20;;
5549;SDS011;2798;42.716;23.256;2023-02-01T09:25:02;7.10;;;3.03;;
5549;SDS011;2798;42.716;23.256;2023-02-01T09:27:27;7.23;;;3.60;;
5549;SDS011;2798;42.716;23.256;2023-02-01T09:29:52;11.87;;;3.20;;
5549;SDS011;2798;42.716;23.256;2023-02-01T09:32:21;4.97;;;3.23;;
5549;SDS011;2798;42.716;23.256;2023-02-01T09:34:47;5.10;;;2.60;;
5549;SDS011;2798;42.716;23.256;2023-02-01T09:37:12;4.53;;;2.83;;
5549;SDS011;2798;42.716;23.256;2023-02-01T09:39:37;5.87;;;3.13;;
5549;SDS011;2798;42.716;23.256;2023-02-01T09:47:18;5.13;;;3.57;;
5549;SDS011;2798;42.716;23.256;2023-02-01T09:49:52;4.60;;;3.30;;
5549;SDS011;2798;42.716;23.256;2023-02-01T09:52:22;6.10;;;3.33;;
5549;SDS011;2798;42.716;23.256;2023-02-01T09:54:52;6.93;;;3.13;;
5549;SDS011;2798;42.716;23.256;2023-02-01T09:57:26;6.93;;;3.70;;
5549;SDS011;2798;42.716;23.256;2023-02-01T10:00:06;4.70;;;3.70;;
5549;SDS011;2798;42.716;23.256;2023-02-01T10:02:36;6.00;;;3.00;;
5549;SDS011;2798;42.716;23.256;2023-02-01T10:05:03;2.83;;;2.53;;
5549;SDS011;2798;42.716;23.256;2023-02-01T10:07:40;12.10;;;3.57;;
5549;SDS011;2798;42.716;23.256;2023-02-01T10:10:11;3.60;;;2.90;;
5549;SDS011;2798;42.716;23.256;2023-02-01T10:22:46;6.33;;;3.13;;
5549;SDS011;2798;42.716;23.256;2023-02-01T10:25:23;7.10;;;3.80;;
5549;SDS011;2798;42.716;23.256;2023-02-01T10:27:49;7.40;;;3.27;;
5549;SDS011;2798;42.716;23.256;2023-02-01T10:30:19;3.73;;;3.10;;
5549;SDS011;2798;42.716;23.256;2023-02-01T10:32:44;3.90;;;2.53;;
5549;SDS011;2798;42.716;23.256;2023-02-01T10:35:16;5.13;;;2.83;;
5549;SDS011;2798;42.716;23.256;2023-02-01T10:37:41;5.40;;;2.87;;
5549;SDS011;2798;42.716;23.256;2023-02-01T10:42:41;5.73;;;3.00;;
5549;SDS011;2798;42.716;23.256;2023-02-01T10:45:11;3.93;;;2.80;;
5549;SDS011;2798;42.716;23.256;2023-02-01T10:47:37;5.17;;;3.00;;
5549;SDS011;2798;42.716;23.256;2023-02-01T10:52:33;3.40;;;2.70;;
5549;SDS011;2798;42.716;23.256;2023-02-01T10:57:48;3.00;;;;;
5549;SDS011;2798;42.716;23.256;2023-02-01T11:00:19;3.30;;;2.73;;
5549;SDS011;2798;42.716;23.256;2023-02-01T11:02:45;4.73;;;2.37;;
5549;SDS011;2798;42.716;23.256;2023-02-01T11:05:10;4.20;;;2.80;;
5549;SDS011;2798;42.716;23.256;2023-02-01T11:07:37;6.40;;;3.70;;
5549;SDS011;2798;42.716;23.256;2023-02-01T11:10:03;4.03;;;2.87;;
5549;SDS011;2798;42.716;23.256;2023-02-01T11:12:31;3.83;;;2.77;;
5549;SDS011;2798;42.716;23.256;2023-02-01T11:14:58;3.47;;;2.77;;
5549;SDS011;2798;42.716;23.256;2023-02-01T11:17:25;3.40;;;2.60;;
5549;SDS011;2798;42.716;23.256;2023-02-01T11:19:56;4.63;;;2.50;;
5549;SDS011;2798;42.716;23.256;2023-02-01T11:22:21;5.13;;;3.03;;
5549;SDS011;2798;42.716;23.256;2023-02-01T11:24:49;2.90;;;2.20;;
5549;SDS011;2798;42.716;23.256;2023-02-01T11:27:15;3.90;;;2.13;;
5549;SDS011;2798;42.716;23.256;2023-02-01T11:29:43;3.83;;;2.33;;
5549;SDS011;2798;42.716;23.256;2023-02-01T11:32:09;4.00;;;2.50;;
5549;SDS011;2798;42.716;23.256;2023-02-01T11:34:42;4.20;;;2.20;;
5549;SDS011;2798;42.716;23.256;2023-02-01T11:37:52;6.40;;;2.47;;
5549;SDS011;2798;42.716;23.256;2023-02-01T11:39:57;7.00;;;2.20;;
5549;SDS011;2798;42.716;23.256;2023-02-01T11:42:23;6.07;;;2.13;;
5549;SDS011;2798;42.716;23.256;2023-02-01T11:44:49;5.93;;;2.80;;
5549;SDS011;2798;42.716;23.256;2023-02-01T11:49:50;2.90;;;2.37;;
5549;SDS011;2798;42.716;23.256;2023-02-01T12:05:13;2.73;;;2.40;;
5549;SDS011;2798;42.716;23.256;2023-02-01T12:20:18;3.50;;;2.27;;
5549;SDS011;2798;42.716;23.256;2023-02-01T12:22:53;3.90;;;2.80;;
5549;SDS011;2798;42.716;23.256;2023-02-01T12:25:36;5.50;;;2.10;;
5549;SDS011;2798;42.716;23.256;2023-02-01T12:38:21;3.57;;;2.13;;
5549;SDS011;2798;42.716;23.256;2023-02-01T12:41:01;3.33;;;2.57;;
5549;SDS011;2798;42.716;23.256;2023-02-01T12:46:04;3.47;;;2.53;;
5549;SDS011;2798;42.716;23.256;2023-02-01T12:50:58;4.03;;;2.70;;
5549;SDS011;2798;42.716;23.256;2023-02-01T12:55:59;2.60;;;2.20;;
5549;SDS011;2798;42.716;23.256;2023-02-01T12:58:42;3.43;;;2.47;;
5549;SDS011;2798;42.716;23.256;2023-02-01T13:01:20;3.70;;;2.30;;
5549;SDS011;2798;42.716;23.256;2023-02-01T13:06:48;3.07;;;2.47;;
5549;SDS011;2798;42.716;23.256;2023-02-01T13:09:29;3.13;;;2.50;;
5549;SDS011;2798;42.716;23.256;2023-02-01T13:11:57;6.53;;;3.30;;
5549;SDS011;2798;42.716;23.256;2023-02-01T13:19:37;2.30;;;2.03;;
5549;SDS011;2798;42.716;23.256;2023-02-01T13:24:52;4.83;;;4.07;;
5549;SDS011;2798;42.716;23.256;2023-02-01T13:27:19;4.57;;;4.00;;
5549;SDS011;2798;42.716;23.256;2023-02-01T13:29:46;5.63;;;4.07;;
5549;SDS011;2798;42.716;23.256;2023-02-01T13:37:39;2.90;;;2.57;;
5549;SDS011;2798;42.716;23.256;2023-02-01T13:42:35;3.47;;;2.53;;
5549;SDS011;2798;42.716;23.256;2023-02-01T13:45:13;7.13;;;2.80;;
5549;SDS011;2798;42.716;23.256;2023-02-01T13:47:40;4.33;;;3.43;;
5549;SDS011;2798;42.716;23.256;2023-02-01T13:50:19;7.03;;;3.33;;
5549;SDS011;2798;42.716;23.256;2023-02-01T13:52:51;4.23;;;2.93;;
5549;SDS011;2798;42.716;23.256;2023-02-01T13:57:45;6.83;;;3.50;;
5549;SDS011;2798;42.716;23.256;2023-02-01T14:02:50;4.70;;;3.27;;
5549;SDS011;2798;42.716;23.256;2023-02-01T14:13:13;4.10;;;3.10;;
5549;SDS011;2798;42.716;23.256;2023-02-01T14:15:39;4.20;;;3.33;;
5549;SDS011;2798;42.716;23.256;2023-02-01T14:20:48;4.00;;;3.17;;
5549;SDS011;2798;42.716;23.256;2023-02-01T14:23:16;5.97;;;3.70;;
5549;SDS011;2798;42.716;23.256;2023-02-01T14:25:42;7.37;;;4.00;;
5549;SDS011;2798;42.716;23.256;2023-02-01T14:28:24;4.23;;;3.43;;
5549;SDS011;2798;42.716;23.256;2023-02-01T14:30:50;4.93;;;3.53;;
5549;SDS011;2798;42.716;23.256;2023-02-01T14:33:22;7.60;;;4.03;;
5549;SDS011;2798;42.716;23.256;2023-02-01T14:36:02;5.17;;;3.70;;
5549;SDS011;2798;42.716;23.256;2023-02-01T14:38:27;4.80;;;3.30;;
5549;SDS011;2798;42.716;23.256;2023-02-01T14:41:09;6.80;;;4.03;;
5549;SDS011;2798;42.716;23.256;2023-02-01T14:49:19;5.87;;;4.00;;
5549;SDS011;2798;42.716;23.256;2023-02-01T14:51:44;8.33;;;4.30;;
5549;SDS011;2798;42.716;23.256;2023-02-01T14:54:11;10.13;;;4.60;;
5549;SDS011;2798;42.716;23.256;2023-02-01T14:56:37;5.40;;;3.43;;
5549;SDS011;2798;42.716;23.256;2023-02-01T14:59:11;5.87;;;3.77;;
5549;SDS011;2798;42.716;23.256;2023-02-01T15:01:38;7.70;;;3.63;;
5549;SDS011;2798;42.716;23.256;2023-02-01T15:04:05;5.00;;;3.60;;
5549;SDS011;2798;42.716;23.256;2023-02-01T15:14:20;6.10;;;3.77;;
5549;SDS011;2798;42.716;23.256;2023-02-01T15:16:45;5.43;;;3.57;;
5549;SDS011;2798;42.716;23.256;2023-02-01T15:19:18;5.77;;;3.90;;
5549;SDS011;2798;42.716;23.256;2023-02-01T15:21:45;6.60;;;4.10;;
5549;SDS011;2798;42.716;23.256;2023-02-01T15:24:18;11.43;;;5.20;;
5549;SDS011;2798;42.716;23.256;2023-02-01T15:26:43;8.47;;;4.20;;
5549;SDS011;2798;42.716;23.256;2023-02-01T15:29:10;12.57;;;5.40;;
5549;SDS011;2798;42.716;23.256;2023-02-01T15:31:39;11.00;;;4.20;;
5549;SDS011;2798;42.716;23.256;2023-02-01T15:34:05;6.13;;;3.80;;
5549;SDS011;2798;42.716;23.256;2023-02-01T15:36:31;7.90;;;3.33;;
5549;SDS011;2798;42.716;23.256;2023-02-01T15:41:44;6.93;;;4.03;;
5549;SDS011;2798;42.716;23.256;2023-02-01T15:46:54;5.87;;;3.63;;
5549;SDS011;2798;42.716;23.256;2023-02-01T15:49:24;4.80;;;3.40;;
5549;SDS011;2798;42.716;23.256;2023-02-01T15:51:51;6.60;;;4.00;;
5549;SDS011;2798;42.716;23.256;2023-02-01T15:54:22;5.47;;;4.20;;
5549;SDS011;2798;42.716;23.256;2023-02-01T15:56:49;8.20;;;4.40;;
5549;SDS011;2798;42.716;23.256;2023-02-01T15:59:18;6.97;;;3.70;;
5549;SDS011;2798;42.716;23.256;2023-02-01T16:01:44;5.23;;;3.63;;
5549;SDS011;2798;42.716;23.256;2023-02-01T16:04:16;8.33;;;4.80;;
5549;SDS011;2798;42.716;23.256;2023-02-01T16:06:46;12.40;;;5.20;;
5549;SDS011;2798;42.716;23.256;2023-02-01T16:09:13;13.53;;;5.50;;
5549;SDS011;2798;42.716;23.256;2023-02-01T16:11:56;6.87;;;4.30;;
5549;SDS011;2798;42.716;23.256;2023-02-01T16:14:21;10.40;;;5.10;;
5549;SDS011;2798;42.716;23.256;2023-02-01T16:16:46;6.40;;;4.00;;
5549;SDS011;2798;42.716;23.256;2023-02-01T16:19:12;9.57;;;4.17;;
5549;SDS011;2798;42.716;23.256;2023-02-01T16:21:37;8.43;;;4.33;;
5549;SDS011;2798;42.716;23.256;2023-02-01T16:24:02;8.40;;;4.67;;
5549;SDS011;2798;42.716;23.256;2023-02-01T16:26:32;7.03;;;4.10;;
5549;SDS011;2798;42.716;23.256;2023-02-01T16:28:58;10.47;;;5.23;;
5549;SDS011;2798;42.716;23.256;2023-02-01T16:31:27;7.37;;;4.10;;
5549;SDS011;2798;42.716;23.256;2023-02-01T16:33:53;10.03;;;4.57;;
5549;SDS011;2798;42.716;23.256;2023-02-01T16:36:18;5.70;;;3.80;;
5549;SDS011;2798;42.716;23.256;2023-02-01T16:38:44;7.30;;;3.87;;
5549;SDS011;2798;42.716;23.256;2023-02-01T16:41:15;11.53;;;4.43;;
5549;SDS011;2798;42.716;23.256;2023-02-01T16:43:41;10.10;;;4.57;;
5549;SDS011;2798;42.716;23.256;2023-02-01T16:46:11;7.17;;;3.60;;
5549;SDS011;2798;42.716;23.256;2023-02-01T16:48:37;9.50;;;3.97;;
5549;SDS011;2798;42.716;23.256;2023-02-01T16:51:12;7.83;;;4.00;;
5549;SDS011;2798;42.716;23.256;2023-02-01T16:53:38;7.80;;;4.07;;
5549;SDS011;2798;42.716;23.256;2023-02-01T16:56:16;8.43;;;4.00;;
5549;SDS011;2798;42.716;23.256;2023-02-01T16:58:43;10.33;;;5.00;;
5549;SDS011;2798;42.716;23.256;2023-02-01T17:01:09;11.90;;;5.30;;
5549;SDS011;2798;42.716;23.256;2023-02-01T17:03:35;8.53;;;4.43;;
5549;SDS011;2798;42.716;23.256;2023-02-01T17:06:00;7.17;;;4.93;;
5549;SDS011;2798;42.716;23.256;2023-02-01T17:08:31;8.43;;;4.43;;
5549;SDS011;2798;42.716;23.256;2023-02-01T17:10:57;10.03;;;4.70;;
5549;SDS011;2798;42.716;23.256;2023-02-01T17:13:22;9.43;;;4.30;;
5549;SDS011;2798;42.716;23.256;2023-02-01T17:16:06;9.10;;;4.30;;
5549;SDS011;2798;42.716;23.256;2023-02-01T17:18:34;9.33;;;4.67;;
5549;SDS011;2798;42.716;23.256;2023-02-01T17:21:00;7.83;;;4.17;;
5549;SDS011;2798;42.716;23.256;2023-02-01T17:23:26;8.17;;;4.13;;
5549;SDS011;2798;42.716;23.256;2023-02-01T17:25:51;14.53;;;4.30;;
5549;SDS011;2798;42.716;23.256;2023-02-01T17:28:17;7.93;;;4.40;;
5549;SDS011;2798;42.716;23.256;2023-02-01T17:30:42;8.10;;;4.37;;
5549;SDS011;2798;42.716;23.256;2023-02-01T17:33:11;8.30;;;4.50;;